sensor_id;sensor_type;location;lat;lon;timestamp;temperature;humidity
65044;DHT22;51617;48.158;16.464;2023-03-23T00:01:25;11.90;82.60
65044;DHT22;51617;48.158;16.464;2023-03-23T00:03:53;11.80;83.00
65044;DHT22;51617;48.158;16.464;2023-03-23T00:06:23;11.70;83.20
65044;DHT22;51617;48.158;16.464;2023-03-23T00:08:51;11.70;83.30
65044;DHT22;51617;48.158;16.464;2023-03-23T00:11:23;11.60;83.70
65044;DHT22;51617;48.158;16.464;2023-03-23T00:13:52;11.50;84.10
65044;DHT22;51617;48.158;16.464;2023-03-23T00:16:23;11.30;84.80
65044;DHT22;51617;48.158;16.464;2023-03-23T00:21:26;11.10;85.20
65044;DHT22;51617;48.158;16.464;2023-03-23T00:24:04;11.10;85.70
65044;DHT22;51617;48.158;16.464;2023-03-23T00:26:31;11.00;86.10
65044;DHT22;51617;48.158;16.464;2023-03-23T00:29:00;11.00;86.20
65044;DHT22;51617;48.158;16.464;2023-03-23T00:31:26;11.00;86.40
65044;DHT22;51617;48.158;16.464;2023-03-23T00:33:57;11.00;86.40
65044;DHT22;51617;48.158;16.464;2023-03-23T00:36:23;10.90;86.50
65044;DHT22;51617;48.158;16.464;2023-03-23T00:38:49;10.80;87.00
65044;DHT22;51617;48.158;16.464;2023-03-23T00:41:15;10.80;87.40
65044;DHT22;51617;48.158;16.464;2023-03-23T00:43:41;10.80;87.60
65044;DHT22;51617;48.158;16.464;2023-03-23T00:46:07;10.80;87.90
65044;DHT22;51617;48.158;16.464;2023-03-23T00:48:36;10.90;87.80
65044;DHT22;51617;48.158;16.464;2023-03-23T00:51:06;10.90;87.70
65044;DHT22;51617;48.158;16.464;2023-03-23T00:53:40;10.90;87.60
65044;DHT22;51617;48.158;16.464;2023-03-23T00:56:07;10.90;87.80
65044;DHT22;51617;48.158;16.464;2023-03-23T00:58:32;10.80;88.00
65044;DHT22;51617;48.158;16.464;2023-03-23T01:00:58;10.80;88.00
65044;DHT22;51617;48.158;16.464;2023-03-23T01:03:24;10.80;87.90
65044;DHT22;51617;48.158;16.464;2023-03-23T01:05:52;10.70;87.80
65044;DHT22;51617;48.158;16.464;2023-03-23T01:08:18;10.60;88.40
65044;DHT22;51617;48.158;16.464;2023-03-23T01:10:48;10.50;88.80
65044;DHT22;51617;48.158;16.464;2023-03-23T01:13:15;10.50;89.20
65044;DHT22;51617;48.158;16.464;2023-03-23T01:15:41;10.50;89.30
65044;DHT22;51617;48.158;16.464;2023-03-23T01:18:09;10.50;89.50
65044;DHT22;51617;48.158;16.464;2023-03-23T01:20:38;10.50;89.50
65044;DHT22;51617;48.158;16.464;2023-03-23T01:23:03;10.60;89.50
65044;DHT22;51617;48.158;16.464;2023-03-23T01:25:31;10.50;89.50
65044;DHT22;51617;48.158;16.464;2023-03-23T01:27:57;10.50;89.50
65044;DHT22;51617;48.158;16.464;2023-03-23T01:30:24;10.50;89.70
65044;DHT22;51617;48.158;16.464;2023-03-23T01:32:50;10.50;89.50
65044;DHT22;51617;48.158;16.464;2023-03-23T01:35:17;10.50;89.50
65044;DHT22;51617;48.158;16.464;2023-03-23T01:37:43;10.50;89.80
65044;DHT22;51617;48.158;16.464;2023-03-23T01:40:09;10.40;89.90
65044;DHT22;51617;48.158;16.464;2023-03-23T01:42:37;10.40;90.00
65044;DHT22;51617;48.158;16.464;2023-03-23T01:45:23;10.40;90.10
65044;DHT22;51617;48.158;16.464;2023-03-23T01:47:53;10.40;89.50
65044;DHT22;51617;48.158;16.464;2023-03-23T01:50:22;10.20;89.30
65044;DHT22;51617;48.158;16.464;2023-03-23T01:52:50;10.00;90.10
65044;DHT22;51617;48.158;16.464;2023-03-23T01:55:16;9.80;90.40
65044;DHT22;51617;48.158;16.464;2023-03-23T01:57:42;9.80;90.60
65044;DHT22;51617;48.158;16.464;2023-03-23T02:00:10;9.80;90.60
65044;DHT22;51617;48.158;16.464;2023-03-23T02:02:44;9.90;90.70
65044;DHT22;51617;48.158;16.464;2023-03-23T02:05:16;9.90;90.70
65044;DHT22;51617;48.158;16.464;2023-03-23T02:07:45;9.80;90.80
65044;DHT22;51617;48.158;16.464;2023-03-23T02:10:12;9.70;91.00
65044;DHT22;51617;48.158;16.464;2023-03-23T02:12:38;9.60;91.20
65044;DHT22;51617;48.158;16.464;2023-03-23T02:15:04;9.50;91.30
65044;DHT22;51617;48.158;16.464;2023-03-23T02:20:28;9.40;91.20
65044;DHT22;51617;48.158;16.464;2023-03-23T02:31:35;9.30;91.90
65044;DHT22;51617;48.158;16.464;2023-03-23T02:36:47;9.00;92.20
65044;DHT22;51617;48.158;16.464;2023-03-23T02:39:31;8.90;92.30
65044;DHT22;51617;48.158;16.464;2023-03-23T02:42:05;8.90;92.40
65044;DHT22;51617;48.158;16.464;2023-03-23T02:44:34;9.00;92.60
65044;DHT22;51617;48.158;16.464;2023-03-23T02:47:03;9.00;92.70
65044;DHT22;51617;48.158;16.464;2023-03-23T02:49:31;9.00;92.50
65044;DHT22;51617;48.158;16.464;2023-03-23T02:51:58;8.90;92.60
65044;DHT22;51617;48.158;16.464;2023-03-23T02:54:26;8.80;92.70
65044;DHT22;51617;48.158;16.464;2023-03-23T02:56:53;8.80;92.80
65044;DHT22;51617;48.158;16.464;2023-03-23T02:59:19;8.80;92.90
65044;DHT22;51617;48.158;16.464;2023-03-23T03:01:50;8.80;93.40
65044;DHT22;51617;48.158;16.464;2023-03-23T03:04:22;8.80;93.30
65044;DHT22;51617;48.158;16.464;2023-03-23T03:06:52;8.80;93.20
65044;DHT22;51617;48.158;16.464;2023-03-23T03:09:43;8.90;93.10
65044;DHT22;51617;48.158;16.464;2023-03-23T03:12:51;8.80;93.20
65044;DHT22;51617;48.158;16.464;2023-03-23T03:17:54;8.80;93.40
65044;DHT22;51617;48.158;16.464;2023-03-23T03:20:25;8.80;93.50
65044;DHT22;51617;48.158;16.464;2023-03-23T03:22:52;8.90;93.40
65044;DHT22;51617;48.158;16.464;2023-03-23T03:25:19;8.90;93.50
65044;DHT22;51617;48.158;16.464;2023-03-23T03:27:47;9.00;93.50
65044;DHT22;51617;48.158;16.464;2023-03-23T03:30:16;9.00;93.60
65044;DHT22;51617;48.158;16.464;2023-03-23T03:32:48;9.10;93.60
65044;DHT22;51617;48.158;16.464;2023-03-23T03:35:17;9.10;93.50
65044;DHT22;51617;48.158;16.464;2023-03-23T03:37:44;9.10;93.30
65044;DHT22;51617;48.158;16.464;2023-03-23T03:40:13;9.20;93.10
65044;DHT22;51617;48.158;16.464;2023-03-23T03:42:40;9.10;93.00
65044;DHT22;51617;48.158;16.464;2023-03-23T03:45:08;9.10;93.40
65044;DHT22;51617;48.158;16.464;2023-03-23T03:47:34;9.10;93.10
65044;DHT22;51617;48.158;16.464;2023-03-23T03:50:00;9.10;93.10
65044;DHT22;51617;48.158;16.464;2023-03-23T03:52:25;9.00;93.20
65044;DHT22;51617;48.158;16.464;2023-03-23T03:54:53;8.90;93.40
65044;DHT22;51617;48.158;16.464;2023-03-23T03:57:19;8.90;93.50
65044;DHT22;51617;48.158;16.464;2023-03-23T03:59:45;8.90;93.40
65044;DHT22;51617;48.158;16.464;2023-03-23T04:02:11;8.70;93.30
65044;DHT22;51617;48.158;16.464;2023-03-23T04:04:40;8.60;93.30
65044;DHT22;51617;48.158;16.464;2023-03-23T04:07:07;8.50;93.60
65044;DHT22;51617;48.158;16.464;2023-03-23T04:09:36;8.50;93.70
65044;DHT22;51617;48.158;16.464;2023-03-23T04:12:02;8.50;93.90
65044;DHT22;51617;48.158;16.464;2023-03-23T04:14:28;8.40;94.10
65044;DHT22;51617;48.158;16.464;2023-03-23T04:16:54;8.50;94.20
65044;DHT22;51617;48.158;16.464;2023-03-23T04:19:22;8.50;94.20
65044;DHT22;51617;48.158;16.464;2023-03-23T04:21:48;8.50;94.30
65044;DHT22;51617;48.158;16.464;2023-03-23T04:24:15;8.50;94.20
65044;DHT22;51617;48.158;16.464;2023-03-23T04:26:41;8.50;94.40
65044;DHT22;51617;48.158;16.464;2023-03-23T04:29:08;8.60;94.40
65044;DHT22;51617;48.158;16.464;2023-03-23T04:31:34;8.60;94.40
65044;DHT22;51617;48.158;16.464;2023-03-23T04:34:01;8.60;94.50
65044;DHT22;51617;48.158;16.464;2023-03-23T04:36:28;8.70;94.60
65044;DHT22;51617;48.158;16.464;2023-03-23T04:38:59;8.90;94.50
65044;DHT22;51617;48.158;16.464;2023-03-23T04:41:26;9.00;94.40
65044;DHT22;51617;48.158;16.464;2023-03-23T04:43:52;9.10;94.30
65044;DHT22;51617;48.158;16.464;2023-03-23T04:46:19;9.10;94.10
65044;DHT22;51617;48.158;16.464;2023-03-23T04:48:46;9.20;94.10
65044;DHT22;51617;48.158;16.464;2023-03-23T04:51:12;9.20;93.70
65044;DHT22;51617;48.158;16.464;2023-03-23T04:53:38;9.00;93.20
65044;DHT22;51617;48.158;16.464;2023-03-23T04:56:04;8.80;93.20
65044;DHT22;51617;48.158;16.464;2023-03-23T04:58:30;8.70;93.50
65044;DHT22;51617;48.158;16.464;2023-03-23T05:00:59;8.60;93.80
65044;DHT22;51617;48.158;16.464;2023-03-23T05:03:25;8.60;93.80
65044;DHT22;51617;48.158;16.464;2023-03-23T05:05:53;8.60;94.20
65044;DHT22;51617;48.158;16.464;2023-03-23T05:08:23;8.60;94.50
65044;DHT22;51617;48.158;16.464;2023-03-23T05:10:57;8.50;94.40
65044;DHT22;51617;48.158;16.464;2023-03-23T05:13:23;8.50;94.30
65044;DHT22;51617;48.158;16.464;2023-03-23T05:15:49;8.50;94.40
65044;DHT22;51617;48.158;16.464;2023-03-23T05:18:15;8.50;94.40
65044;DHT22;51617;48.158;16.464;2023-03-23T05:20:41;8.40;94.40
65044;DHT22;51617;48.158;16.464;2023-03-23T05:23:08;8.40;94.80
65044;DHT22;51617;48.158;16.464;2023-03-23T05:25:35;8.40;94.70
65044;DHT22;51617;48.158;16.464;2023-03-23T05:28:09;8.40;94.80
65044;DHT22;51617;48.158;16.464;2023-03-23T05:30:37;8.50;95.10
65044;DHT22;51617;48.158;16.464;2023-03-23T05:33:04;8.60;94.80
65044;DHT22;51617;48.158;16.464;2023-03-23T05:35:30;8.50;94.90
65044;DHT22;51617;48.158;16.464;2023-03-23T05:37:56;8.60;94.90
65044;DHT22;51617;48.158;16.464;2023-03-23T05:40:25;8.70;95.10
65044;DHT22;51617;48.158;16.464;2023-03-23T05:42:51;8.80;95.10
65044;DHT22;51617;48.158;16.464;2023-03-23T05:45:18;8.90;95.20
65044;DHT22;51617;48.158;16.464;2023-03-23T05:47:46;9.00;95.00
65044;DHT22;51617;48.158;16.464;2023-03-23T05:50:12;9.10;95.00
65044;DHT22;51617;48.158;16.464;2023-03-23T05:52:39;9.20;95.10
65044;DHT22;51617;48.158;16.464;2023-03-23T05:55:05;9.40;94.90
65044;DHT22;51617;48.158;16.464;2023-03-23T05:57:33;9.50;95.00
65044;DHT22;51617;48.158;16.464;2023-03-23T05:59:59;9.60;94.90
65044;DHT22;51617;48.158;16.464;2023-03-23T06:02:26;9.70;94.70
65044;DHT22;51617;48.158;16.464;2023-03-23T06:04:55;9.90;94.60
65044;DHT22;51617;48.158;16.464;2023-03-23T06:07:24;10.00;94.40
65044;DHT22;51617;48.158;16.464;2023-03-23T06:09:50;10.10;94.20
65044;DHT22;51617;48.158;16.464;2023-03-23T06:12:16;10.30;94.10
65044;DHT22;51617;48.158;16.464;2023-03-23T06:14:46;10.30;93.80
65044;DHT22;51617;48.158;16.464;2023-03-23T06:17:12;10.40;93.70
65044;DHT22;51617;48.158;16.464;2023-03-23T06:19:38;10.50;93.70
65044;DHT22;51617;48.158;16.464;2023-03-23T06:22:03;10.50;93.80
65044;DHT22;51617;48.158;16.464;2023-03-23T06:24:30;10.60;93.40
65044;DHT22;51617;48.158;16.464;2023-03-23T06:27:00;10.70;93.30
65044;DHT22;51617;48.158;16.464;2023-03-23T06:29:26;10.70;93.20
65044;DHT22;51617;48.158;16.464;2023-03-23T06:31:56;10.80;93.10
65044;DHT22;51617;48.158;16.464;2023-03-23T06:34:23;10.90;92.90
65044;DHT22;51617;48.158;16.464;2023-03-23T06:36:49;11.00;92.90
65044;DHT22;51617;48.158;16.464;2023-03-23T06:39:14;11.00;92.80
65044;DHT22;51617;48.158;16.464;2023-03-23T06:41:40;11.10;92.50
65044;DHT22;51617;48.158;16.464;2023-03-23T06:44:06;11.20;92.40
65044;DHT22;51617;48.158;16.464;2023-03-23T06:46:34;11.40;92.30
65044;DHT22;51617;48.158;16.464;2023-03-23T06:49:00;11.50;92.20
65044;DHT22;51617;48.158;16.464;2023-03-23T06:51:26;11.70;91.70
65044;DHT22;51617;48.158;16.464;2023-03-23T06:53:51;11.80;91.80
65044;DHT22;51617;48.158;16.464;2023-03-23T06:56:17;11.90;91.40
65044;DHT22;51617;48.158;16.464;2023-03-23T06:58:43;12.00;91.10
65044;DHT22;51617;48.158;16.464;2023-03-23T07:01:11;12.10;90.90
65044;DHT22;51617;48.158;16.464;2023-03-23T07:03:36;12.20;90.90
65044;DHT22;51617;48.158;16.464;2023-03-23T07:06:03;12.30;90.70
65044;DHT22;51617;48.158;16.464;2023-03-23T07:08:29;12.40;90.40
65044;DHT22;51617;48.158;16.464;2023-03-23T07:10:56;12.50;90.40
65044;DHT22;51617;48.158;16.464;2023-03-23T07:13:22;12.60;90.30
65044;DHT22;51617;48.158;16.464;2023-03-23T07:15:48;12.80;90.20
65044;DHT22;51617;48.158;16.464;2023-03-23T07:18:15;12.90;89.70
65044;DHT22;51617;48.158;16.464;2023-03-23T07:20:40;13.00;89.30
65044;DHT22;51617;48.158;16.464;2023-03-23T07:23:07;13.00;89.20
65044;DHT22;51617;48.158;16.464;2023-03-23T07:25:33;13.10;88.70
65044;DHT22;51617;48.158;16.464;2023-03-23T07:28:00;13.20;88.60
65044;DHT22;51617;48.158;16.464;2023-03-23T07:30:27;13.30;87.80
65044;DHT22;51617;48.158;16.464;2023-03-23T07:32:55;13.40;88.10
65044;DHT22;51617;48.158;16.464;2023-03-23T07:35:22;13.50;88.20
65044;DHT22;51617;48.158;16.464;2023-03-23T07:37:48;13.50;87.90
65044;DHT22;51617;48.158;16.464;2023-03-23T07:40:17;13.70;88.20
65044;DHT22;51617;48.158;16.464;2023-03-23T07:42:45;13.70;87.40
65044;DHT22;51617;48.158;16.464;2023-03-23T07:45:12;13.80;87.00
65044;DHT22;51617;48.158;16.464;2023-03-23T07:47:39;13.90;87.70
65044;DHT22;51617;48.158;16.464;2023-03-23T07:50:06;13.90;87.60
65044;DHT22;51617;48.158;16.464;2023-03-23T07:52:33;13.90;87.50
65044;DHT22;51617;48.158;16.464;2023-03-23T07:54:59;14.00;87.60
65044;DHT22;51617;48.158;16.464;2023-03-23T07:57:29;14.10;86.40
65044;DHT22;51617;48.158;16.464;2023-03-23T07:59:55;14.20;86.10
65044;DHT22;51617;48.158;16.464;2023-03-23T08:02:22;14.20;86.00
65044;DHT22;51617;48.158;16.464;2023-03-23T08:04:48;14.20;86.40
65044;DHT22;51617;48.158;16.464;2023-03-23T08:07:14;14.40;86.50
65044;DHT22;51617;48.158;16.464;2023-03-23T08:09:42;14.50;86.10
65044;DHT22;51617;48.158;16.464;2023-03-23T08:12:08;14.70;85.60
65044;DHT22;51617;48.158;16.464;2023-03-23T08:14:33;14.70;84.80
65044;DHT22;51617;48.158;16.464;2023-03-23T08:16:59;14.90;84.60
65044;DHT22;51617;48.158;16.464;2023-03-23T08:19:26;15.00;83.80
65044;DHT22;51617;48.158;16.464;2023-03-23T08:21:51;15.10;83.40
65044;DHT22;51617;48.158;16.464;2023-03-23T08:24:17;15.20;83.40
65044;DHT22;51617;48.158;16.464;2023-03-23T08:26:44;15.30;83.00
65044;DHT22;51617;48.158;16.464;2023-03-23T08:29:10;15.30;83.00
65044;DHT22;51617;48.158;16.464;2023-03-23T08:31:38;15.40;82.50
65044;DHT22;51617;48.158;16.464;2023-03-23T08:34:04;15.30;82.30
65044;DHT22;51617;48.158;16.464;2023-03-23T08:36:34;15.40;82.00
65044;DHT22;51617;48.158;16.464;2023-03-23T08:39:00;15.30;81.90
65044;DHT22;51617;48.158;16.464;2023-03-23T08:41:26;15.20;81.60
65044;DHT22;51617;48.158;16.464;2023-03-23T08:43:52;15.20;81.60
65044;DHT22;51617;48.158;16.464;2023-03-23T08:46:18;15.10;81.90
65044;DHT22;51617;48.158;16.464;2023-03-23T08:48:46;15.00;82.30
65044;DHT22;51617;48.158;16.464;2023-03-23T08:51:12;15.00;82.50
65044;DHT22;51617;48.158;16.464;2023-03-23T08:53:38;15.00;82.60
65044;DHT22;51617;48.158;16.464;2023-03-23T08:56:06;14.90;82.70
65044;DHT22;51617;48.158;16.464;2023-03-23T08:58:34;15.00;82.90
65044;DHT22;51617;48.158;16.464;2023-03-23T09:00:59;15.10;82.80
65044;DHT22;51617;48.158;16.464;2023-03-23T09:03:26;15.10;82.70
65044;DHT22;51617;48.158;16.464;2023-03-23T09:05:52;15.20;82.50
65044;DHT22;51617;48.158;16.464;2023-03-23T09:08:19;15.30;82.00
65044;DHT22;51617;48.158;16.464;2023-03-23T09:10:45;15.40;81.90
65044;DHT22;51617;48.158;16.464;2023-03-23T09:13:11;15.50;82.00
65044;DHT22;51617;48.158;16.464;2023-03-23T09:15:36;15.70;81.50
65044;DHT22;51617;48.158;16.464;2023-03-23T09:18:02;15.80;81.30
65044;DHT22;51617;48.158;16.464;2023-03-23T09:20:29;15.90;81.30
65044;DHT22;51617;48.158;16.464;2023-03-23T09:22:56;16.00;80.90
65044;DHT22;51617;48.158;16.464;2023-03-23T09:25:24;16.00;80.40
65044;DHT22;51617;48.158;16.464;2023-03-23T09:27:58;16.10;80.20
65044;DHT22;51617;48.158;16.464;2023-03-23T09:30:26;16.10;80.30
65044;DHT22;51617;48.158;16.464;2023-03-23T09:32:53;16.30;80.10
65044;DHT22;51617;48.158;16.464;2023-03-23T09:35:20;16.40;79.30
65044;DHT22;51617;48.158;16.464;2023-03-23T09:37:47;16.30;78.60
65044;DHT22;51617;48.158;16.464;2023-03-23T09:40:21;16.30;78.80
65044;DHT22;51617;48.158;16.464;2023-03-23T09:43:16;16.50;78.50
65044;DHT22;51617;48.158;16.464;2023-03-23T09:48:56;16.90;77.60
65044;DHT22;51617;48.158;16.464;2023-03-23T09:51:47;17.10;77.80
65044;DHT22;51617;48.158;16.464;2023-03-23T09:54:46;17.30;77.10
65044;DHT22;51617;48.158;16.464;2023-03-23T09:57:37;17.40;76.30
65044;DHT22;51617;48.158;16.464;2023-03-23T10:03:35;17.50;75.90
65044;DHT22;51617;48.158;16.464;2023-03-23T10:05:54;17.70;75.70
65044;DHT22;51617;48.158;16.464;2023-03-23T10:08:29;17.80;75.10
65044;DHT22;51617;48.158;16.464;2023-03-23T10:13:58;17.90;74.40
65044;DHT22;51617;48.158;16.464;2023-03-23T10:16:29;17.90;74.30
65044;DHT22;51617;48.158;16.464;2023-03-23T10:19:10;18.10;74.40
65044;DHT22;51617;48.158;16.464;2023-03-23T10:21:45;18.20;74.20
65044;DHT22;51617;48.158;16.464;2023-03-23T10:24:16;18.30;73.50
65044;DHT22;51617;48.158;16.464;2023-03-23T10:27:03;18.40;73.00
65044;DHT22;51617;48.158;16.464;2023-03-23T10:29:35;18.60;73.00
65044;DHT22;51617;48.158;16.464;2023-03-23T10:32:13;18.70;72.10
65044;DHT22;51617;48.158;16.464;2023-03-23T10:40:05;19.00;71.30
65044;DHT22;51617;48.158;16.464;2023-03-23T10:42:35;19.10;70.40
65044;DHT22;51617;48.158;16.464;2023-03-23T10:47:41;19.20;70.00
65044;DHT22;51617;48.158;16.464;2023-03-23T10:50:18;19.40;69.90
65044;DHT22;51617;48.158;16.464;2023-03-23T10:52:47;19.50;69.50
65044;DHT22;51617;48.158;16.464;2023-03-23T10:55:17;19.60;69.40
65044;DHT22;51617;48.158;16.464;2023-03-23T10:58:04;19.80;69.20
65044;DHT22;51617;48.158;16.464;2023-03-23T11:00:31;20.00;69.00
65044;DHT22;51617;48.158;16.464;2023-03-23T11:03:05;20.20;68.20
65044;DHT22;51617;48.158;16.464;2023-03-23T11:05:42;20.30;67.80
65044;DHT22;51617;48.158;16.464;2023-03-23T11:08:18;20.30;67.00
65044;DHT22;51617;48.158;16.464;2023-03-23T11:10:55;20.30;67.20
65044;DHT22;51617;48.158;16.464;2023-03-23T11:13:28;20.40;66.50
65044;DHT22;51617;48.158;16.464;2023-03-23T11:15:54;20.60;66.40
65044;DHT22;51617;48.158;16.464;2023-03-23T11:18:36;20.70;65.90
65044;DHT22;51617;48.158;16.464;2023-03-23T11:21:05;20.90;65.70
65044;DHT22;51617;48.158;16.464;2023-03-23T11:23:36;21.10;64.20
65044;DHT22;51617;48.158;16.464;2023-03-23T11:26:15;21.20;64.60
65044;DHT22;51617;48.158;16.464;2023-03-23T11:29:10;21.50;64.90
65044;DHT22;51617;48.158;16.464;2023-03-23T11:32:10;21.70;62.00
65044;DHT22;51617;48.158;16.464;2023-03-23T11:34:48;21.80;61.50
65044;DHT22;51617;48.158;16.464;2023-03-23T11:37:35;21.90;61.50
65044;DHT22;51617;48.158;16.464;2023-03-23T11:42:38;22.10;61.30
65044;DHT22;51617;48.158;16.464;2023-03-23T11:45:38;22.20;61.30
65044;DHT22;51617;48.158;16.464;2023-03-23T11:51:08;22.40;60.60
65044;DHT22;51617;48.158;16.464;2023-03-23T11:53:55;22.50;60.10
65044;DHT22;51617;48.158;16.464;2023-03-23T11:56:33;22.50;60.00
65044;DHT22;51617;48.158;16.464;2023-03-23T11:58:59;22.70;59.70
65044;DHT22;51617;48.158;16.464;2023-03-23T12:15:05;23.10;58.70
65044;DHT22;51617;48.158;16.464;2023-03-23T12:17:48;23.20;58.00
65044;DHT22;51617;48.158;16.464;2023-03-23T12:20:32;23.20;57.90
65044;DHT22;51617;48.158;16.464;2023-03-23T12:23:24;23.30;57.70
65044;DHT22;51617;48.158;16.464;2023-03-23T12:44:54;23.40;58.50
65044;DHT22;51617;48.158;16.464;2023-03-23T12:47:45;23.60;58.30
65044;DHT22;51617;48.158;16.464;2023-03-23T12:50:22;23.80;57.80
65044;DHT22;51617;48.158;16.464;2023-03-23T12:55:27;23.80;56.60
65044;DHT22;51617;48.158;16.464;2023-03-23T12:58:05;23.80;56.50
65044;DHT22;51617;48.158;16.464;2023-03-23T13:06:08;23.70;56.80
65044;DHT22;51617;48.158;16.464;2023-03-23T13:09:07;23.60;56.70
65044;DHT22;51617;48.158;16.464;2023-03-23T13:11:40;23.60;56.60
65044;DHT22;51617;48.158;16.464;2023-03-23T13:14:33;23.60;56.60
65044;DHT22;51617;48.158;16.464;2023-03-23T13:22:20;23.50;55.30
65044;DHT22;51617;48.158;16.464;2023-03-23T13:24:53;23.50;55.50
65044;DHT22;51617;48.158;16.464;2023-03-23T13:27:26;23.50;55.90
65044;DHT22;51617;48.158;16.464;2023-03-23T13:29:54;23.60;55.20
65044;DHT22;51617;48.158;16.464;2023-03-23T13:32:20;23.60;55.30
65044;DHT22;51617;48.158;16.464;2023-03-23T13:34:48;23.70;55.20
65044;DHT22;51617;48.158;16.464;2023-03-23T14:10:37;24.30;52.90
65044;DHT22;51617;48.158;16.464;2023-03-23T14:13:10;24.50;52.60
65044;DHT22;51617;48.158;16.464;2023-03-23T14:15:53;24.60;52.00
65044;DHT22;51617;48.158;16.464;2023-03-23T14:18:22;24.60;52.00
65044;DHT22;51617;48.158;16.464;2023-03-23T14:20:49;24.50;52.60
65044;DHT22;51617;48.158;16.464;2023-03-23T14:23:17;24.50;52.40
65044;DHT22;51617;48.158;16.464;2023-03-23T14:25:43;24.70;52.30
65044;DHT22;51617;48.158;16.464;2023-03-23T14:28:20;24.80;52.10
65044;DHT22;51617;48.158;16.464;2023-03-23T14:30:49;24.90;52.10
65044;DHT22;51617;48.158;16.464;2023-03-23T14:33:19;25.00;51.40
65044;DHT22;51617;48.158;16.464;2023-03-23T14:35:45;25.00;51.30
65044;DHT22;51617;48.158;16.464;2023-03-23T14:38:19;25.00;51.40
65044;DHT22;51617;48.158;16.464;2023-03-23T14:40:46;25.00;51.40
65044;DHT22;51617;48.158;16.464;2023-03-23T14:43:15;25.10;51.10
65044;DHT22;51617;48.158;16.464;2023-03-23T14:45:41;25.10;50.80
65044;DHT22;51617;48.158;16.464;2023-03-23T14:48:10;25.10;51.50
65044;DHT22;51617;48.158;16.464;2023-03-23T14:50:57;25.10;50.60
65044;DHT22;51617;48.158;16.464;2023-03-23T14:53:39;25.10;50.20
65044;DHT22;51617;48.158;16.464;2023-03-23T14:56:17;25.10;50.00
65044;DHT22;51617;48.158;16.464;2023-03-23T14:58:48;25.20;50.20
65044;DHT22;51617;48.158;16.464;2023-03-23T15:03:50;25.40;49.60
65044;DHT22;51617;48.158;16.464;2023-03-23T15:06:18;25.30;49.20
65044;DHT22;51617;48.158;16.464;2023-03-23T15:08:44;25.40;49.50
65044;DHT22;51617;48.158;16.464;2023-03-23T15:11:31;25.40;49.60
65044;DHT22;51617;48.158;16.464;2023-03-23T15:14:01;25.50;49.40
65044;DHT22;51617;48.158;16.464;2023-03-23T15:16:33;25.40;49.60
65044;DHT22;51617;48.158;16.464;2023-03-23T15:19:11;25.40;49.50
65044;DHT22;51617;48.158;16.464;2023-03-23T15:24:37;25.40;50.40
65044;DHT22;51617;48.158;16.464;2023-03-23T15:29:46;25.50;50.50
65044;DHT22;51617;48.158;16.464;2023-03-23T15:32:12;25.50;50.30
65044;DHT22;51617;48.158;16.464;2023-03-23T15:34:37;25.30;50.30
65044;DHT22;51617;48.158;16.464;2023-03-23T15:37:20;25.20;49.90
65044;DHT22;51617;48.158;16.464;2023-03-23T15:39:47;25.10;48.90
65044;DHT22;51617;48.158;16.464;2023-03-23T15:42:28;24.90;49.20
65044;DHT22;51617;48.158;16.464;2023-03-23T15:45:19;25.00;48.80
65044;DHT22;51617;48.158;16.464;2023-03-23T15:47:48;25.00;48.90
65044;DHT22;51617;48.158;16.464;2023-03-23T15:50:33;25.00;49.10
65044;DHT22;51617;48.158;16.464;2023-03-23T15:53:00;25.20;48.30
65044;DHT22;51617;48.158;16.464;2023-03-23T15:55:34;25.20;48.50
65044;DHT22;51617;48.158;16.464;2023-03-23T15:58:01;25.30;48.90
65044;DHT22;51617;48.158;16.464;2023-03-23T16:00:30;25.20;49.30
65044;DHT22;51617;48.158;16.464;2023-03-23T16:03:03;25.40;49.40
65044;DHT22;51617;48.158;16.464;2023-03-23T16:05:29;25.60;48.90
65044;DHT22;51617;48.158;16.464;2023-03-23T16:07:55;26.00;48.30
65044;DHT22;51617;48.158;16.464;2023-03-23T16:10:22;26.50;47.20
65044;DHT22;51617;48.158;16.464;2023-03-23T16:12:48;26.90;46.10
65044;DHT22;51617;48.158;16.464;2023-03-23T16:15:14;27.20;45.50
65044;DHT22;51617;48.158;16.464;2023-03-23T16:17:41;27.60;44.60
65044;DHT22;51617;48.158;16.464;2023-03-23T16:20:14;27.80;44.20
65044;DHT22;51617;48.158;16.464;2023-03-23T16:22:41;27.60;43.90
65044;DHT22;51617;48.158;16.464;2023-03-23T16:25:08;27.10;44.80
65044;DHT22;51617;48.158;16.464;2023-03-23T16:27:34;26.40;45.60
65044;DHT22;51617;48.158;16.464;2023-03-23T16:30:00;25.80;46.60
65044;DHT22;51617;48.158;16.464;2023-03-23T16:32:28;25.40;47.30
65044;DHT22;51617;48.158;16.464;2023-03-23T16:34:53;25.00;47.80
65044;DHT22;51617;48.158;16.464;2023-03-23T16:37:19;24.60;49.10
65044;DHT22;51617;48.158;16.464;2023-03-23T16:40:05;24.20;49.70
65044;DHT22;51617;48.158;16.464;2023-03-23T16:42:32;23.90;50.20
65044;DHT22;51617;48.158;16.464;2023-03-23T16:44:58;23.80;50.80
65044;DHT22;51617;48.158;16.464;2023-03-23T16:47:24;23.60;51.30
65044;DHT22;51617;48.158;16.464;2023-03-23T16:49:51;23.40;51.90
65044;DHT22;51617;48.158;16.464;2023-03-23T16:52:17;23.20;52.50
65044;DHT22;51617;48.158;16.464;2023-03-23T16:54:43;22.90;53.40
65044;DHT22;51617;48.158;16.464;2023-03-23T16:57:09;22.70;54.00
65044;DHT22;51617;48.158;16.464;2023-03-23T16:59:35;22.40;54.50
65044;DHT22;51617;48.158;16.464;2023-03-23T17:02:01;22.30;55.10
65044;DHT22;51617;48.158;16.464;2023-03-23T17:04:32;22.10;55.50
65044;DHT22;51617;48.158;16.464;2023-03-23T17:06:58;22.00;56.10
65044;DHT22;51617;48.158;16.464;2023-03-23T17:09:25;21.80;56.80
65044;DHT22;51617;48.158;16.464;2023-03-23T17:11:52;21.50;57.30
65044;DHT22;51617;48.158;16.464;2023-03-23T17:14:19;21.40;58.00
65044;DHT22;51617;48.158;16.464;2023-03-23T17:16:45;21.20;58.50
65044;DHT22;51617;48.158;16.464;2023-03-23T17:19:11;21.00;59.20
65044;DHT22;51617;48.158;16.464;2023-03-23T17:21:39;20.80;59.70
65044;DHT22;51617;48.158;16.464;2023-03-23T17:24:06;20.60;59.90
65044;DHT22;51617;48.158;16.464;2023-03-23T17:26:32;20.50;60.70
65044;DHT22;51617;48.158;16.464;2023-03-23T17:28:58;20.40;61.10
65044;DHT22;51617;48.158;16.464;2023-03-23T17:31:24;20.30;61.50
65044;DHT22;51617;48.158;16.464;2023-03-23T17:33:50;20.20;62.00
65044;DHT22;51617;48.158;16.464;2023-03-23T17:36:18;20.00;62.20
65044;DHT22;51617;48.158;16.464;2023-03-23T17:38:44;19.90;62.70
65044;DHT22;51617;48.158;16.464;2023-03-23T17:41:10;19.90;63.20
65044;DHT22;51617;48.158;16.464;2023-03-23T17:43:37;19.80;63.50
65044;DHT22;51617;48.158;16.464;2023-03-23T17:46:05;19.70;64.10